sensor_id;sensor_type;location;lat;lon;timestamp;P1;durP1;ratioP1;P2;durP2;ratioP2
29302;SDS011;60019;45.556;12.004;2023-01-28T00:02:53;15.05;;;8.73;;
29302;SDS011;60019;45.556;12.004;2023-01-28T00:08:54;13.55;;;8.38;;
29302;SDS011;60019;45.556;12.004;2023-01-28T00:14:56;13.30;;;8.93;;
29302;SDS011;60019;45.556;12.004;2023-01-28T00:20:59;15.13;;;8.45;;
29302;SDS011;60019;45.556;12.004;2023-01-28T00:27:01;13.15;;;8.65;;
29302;SDS011;60019;45.556;12.004;2023-01-28T00:33:03;11.23;;;7.82;;
29302;SDS011;60019;45.556;12.004;2023-01-28T00:39:05;11.93;;;8.27;;
29302;SDS011;60019;45.556;12.004;2023-01-28T00:45:07;13.32;;;8.30;;
29302;SDS011;60019;45.556;12.004;2023-01-28T00:51:10;12.32;;;8.25;;
29302;SDS011;60019;45.556;12.004;2023-01-28T00:57:12;11.85;;;8.15;;
29302;SDS011;60019;45.556;12.004;2023-01-28T01:03:14;12.07;;;7.97;;
29302;SDS011;60019;45.556;12.004;2023-01-28T01:09:17;14.10;;;9.45;;
29302;SDS011;60019;45.556;12.004;2023-01-28T01:15:19;11.80;;;7.72;;
29302;SDS011;60019;45.556;12.004;2023-01-28T01:21:22;12.73;;;8.18;;
29302;SDS011;60019;45.556;12.004;2023-01-28T01:27:24;12.52;;;8.32;;
29302;SDS011;60019;45.556;12.004;2023-01-28T01:33:27;13.70;;;8.07;;
29302;SDS011;60019;45.556;12.004;2023-01-28T01:39:29;12.20;;;8.00;;
29302;SDS011;60019;45.556;12.004;2023-01-28T01:45:32;13.77;;;8.65;;
29302;SDS011;60019;45.556;12.004;2023-01-28T01:51:34;16.10;;;8.63;;
29302;SDS011;60019;45.556;12.004;2023-01-28T01:57:37;13.70;;;8.80;;
29302;SDS011;60019;45.556;12.004;2023-01-28T02:09:43;15.38;;;9.10;;
29302;SDS011;60019;45.556;12.004;2023-01-28T02:15:45;16.67;;;8.98;;
29302;SDS011;60019;45.556;12.004;2023-01-28T02:22:09;15.40;;;10.35;;
29302;SDS011;60019;45.556;12.004;2023-01-28T02:40:33;16.65;;;11.23;;
29302;SDS011;60019;45.556;12.004;2023-01-28T02:46:56;17.92;;;10.20;;
29302;SDS011;60019;45.556;12.004;2023-01-28T03:05:46;16.20;;;10.85;;
29302;SDS011;60019;45.556;12.004;2023-01-28T03:24:44;15.27;;;9.63;;
29302;SDS011;60019;45.556;12.004;2023-01-28T03:31:13;14.55;;;9.82;;
29302;SDS011;60019;45.556;12.004;2023-01-28T03:37:35;14.50;;;9.60;;
29302;SDS011;60019;45.556;12.004;2023-01-28T03:43:55;16.77;;;10.05;;
29302;SDS011;60019;45.556;12.004;2023-01-28T03:49:57;16.00;;;9.85;;
29302;SDS011;60019;45.556;12.004;2023-01-28T03:56:05;16.45;;;10.13;;
29302;SDS011;60019;45.556;12.004;2023-01-28T04:02:08;16.08;;;10.32;;
29302;SDS011;60019;45.556;12.004;2023-01-28T04:08:11;15.70;;;9.95;;
29302;SDS011;60019;45.556;12.004;2023-01-28T04:14:43;18.25;;;11.30;;
29302;SDS011;60019;45.556;12.004;2023-01-28T04:20:49;17.23;;;10.57;;
29302;SDS011;60019;45.556;12.004;2023-01-28T04:26:52;16.17;;;11.30;;
29302;SDS011;60019;45.556;12.004;2023-01-28T04:32:54;17.23;;;11.45;;
29302;SDS011;60019;45.556;12.004;2023-01-28T04:39:05;18.63;;;10.80;;
29302;SDS011;60019;45.556;12.004;2023-01-28T04:45:09;19.17;;;12.30;;
29302;SDS011;60019;45.556;12.004;2023-01-28T04:51:37;19.38;;;12.73;;
29302;SDS011;60019;45.556;12.004;2023-01-28T04:57:59;20.95;;;12.30;;
29302;SDS011;60019;45.556;12.004;2023-01-28T05:04:03;19.20;;;11.40;;
29302;SDS011;60019;45.556;12.004;2023-01-28T05:10:08;15.73;;;11.48;;
29302;SDS011;60019;45.556;12.004;2023-01-28T05:16:10;16.42;;;11.50;;
29302;SDS011;60019;45.556;12.004;2023-01-28T05:22:12;16.20;;;11.43;;
29302;SDS011;60019;45.556;12.004;2023-01-28T05:28:22;19.07;;;12.53;;
29302;SDS011;60019;45.556;12.004;2023-01-28T05:34:24;17.70;;;12.02;;
29302;SDS011;60019;45.556;12.004;2023-01-28T05:40:27;20.42;;;13.68;;
29302;SDS011;60019;45.556;12.004;2023-01-28T05:46:29;19.95;;;13.35;;
29302;SDS011;60019;45.556;12.004;2023-01-28T05:52:51;17.38;;;11.93;;
29302;SDS011;60019;45.556;12.004;2023-01-28T05:58:58;22.35;;;12.80;;
29302;SDS011;60019;45.556;12.004;2023-01-28T06:05:00;14.32;;;10.35;;
29302;SDS011;60019;45.556;12.004;2023-01-28T06:11:05;19.77;;;11.70;;
29302;SDS011;60019;45.556;12.004;2023-01-28T06:17:08;18.98;;;12.27;;
29302;SDS011;60019;45.556;12.004;2023-01-28T06:23:30;18.65;;;11.57;;
29302;SDS011;60019;45.556;12.004;2023-01-28T06:29:32;17.63;;;12.57;;
29302;SDS011;60019;45.556;12.004;2023-01-28T06:35:34;19.05;;;11.30;;
29302;SDS011;60019;45.556;12.004;2023-01-28T06:41:36;18.20;;;12.75;;
29302;SDS011;60019;45.556;12.004;2023-01-28T06:47:38;21.67;;;12.18;;
29302;SDS011;60019;45.556;12.004;2023-01-28T06:53:40;18.13;;;12.20;;
29302;SDS011;60019;45.556;12.004;2023-01-28T06:59:42;21.02;;;13.77;;
29302;SDS011;60019;45.556;12.004;2023-01-28T07:05:44;23.77;;;15.27;;
29302;SDS011;60019;45.556;12.004;2023-01-28T07:11:46;25.73;;;15.10;;
29302;SDS011;60019;45.556;12.004;2023-01-28T07:17:47;23.48;;;14.82;;
29302;SDS011;60019;45.556;12.004;2023-01-28T07:23:49;19.73;;;13.40;;
29302;SDS011;60019;45.556;12.004;2023-01-28T07:29:51;21.33;;;13.25;;
29302;SDS011;60019;45.556;12.004;2023-01-28T07:35:53;20.75;;;14.13;;
29302;SDS011;60019;45.556;12.004;2023-01-28T07:41:55;28.98;;;18.92;;
29302;SDS011;60019;45.556;12.004;2023-01-28T07:48:11;26.77;;;17.33;;
29302;SDS011;60019;45.556;12.004;2023-01-28T07:54:13;26.30;;;15.00;;
29302;SDS011;60019;45.556;12.004;2023-01-28T08:00:15;22.60;;;15.43;;
29302;SDS011;60019;45.556;12.004;2023-01-28T08:06:17;25.80;;;14.95;;
29302;SDS011;60019;45.556;12.004;2023-01-28T08:12:19;21.80;;;14.48;;
29302;SDS011;60019;45.556;12.004;2023-01-28T08:18:21;23.60;;;15.10;;
29302;SDS011;60019;45.556;12.004;2023-01-28T08:24:23;19.40;;;14.95;;
29302;SDS011;60019;45.556;12.004;2023-01-28T08:30:25;20.23;;;13.73;;
29302;SDS011;60019;45.556;12.004;2023-01-28T08:36:27;20.77;;;14.27;;
29302;SDS011;60019;45.556;12.004;2023-01-28T08:42:28;17.42;;;12.07;;
29302;SDS011;60019;45.556;12.004;2023-01-28T08:48:30;16.67;;;11.50;;
29302;SDS011;60019;45.556;12.004;2023-01-28T08:54:32;20.92;;;11.77;;
29302;SDS011;60019;45.556;12.004;2023-01-28T09:00:36;14.27;;;9.65;;
29302;SDS011;60019;45.556;12.004;2023-01-28T09:06:38;14.15;;;9.65;;
29302;SDS011;60019;45.556;12.004;2023-01-28T09:12:40;13.27;;;9.50;;
29302;SDS011;60019;45.556;12.004;2023-01-28T09:18:42;11.95;;;8.73;;
29302;SDS011;60019;45.556;12.004;2023-01-28T09:24:44;10.27;;;7.40;;
29302;SDS011;60019;45.556;12.004;2023-01-28T09:30:46;10.90;;;7.68;;
29302;SDS011;60019;45.556;12.004;2023-01-28T09:36:48;10.68;;;7.70;;
29302;SDS011;60019;45.556;12.004;2023-01-28T09:49:20;9.50;;;6.50;;
29302;SDS011;60019;45.556;12.004;2023-01-28T09:55:38;10.40;;;6.97;;
29302;SDS011;60019;45.556;12.004;2023-01-28T10:01:43;10.00;;;7.15;;
29302;SDS011;60019;45.556;12.004;2023-01-28T10:14:08;7.75;;;6.10;;
29302;SDS011;60019;45.556;12.004;2023-01-28T10:20:31;10.82;;;7.25;;
29302;SDS011;60019;45.556;12.004;2023-01-28T10:26:35;9.02;;;6.80;;
29302;SDS011;60019;45.556;12.004;2023-01-28T10:32:37;12.57;;;6.30;;
29302;SDS011;60019;45.556;12.004;2023-01-28T10:38:44;12.00;;;6.70;;
29302;SDS011;60019;45.556;12.004;2023-01-28T10:44:46;9.40;;;6.78;;
29302;SDS011;60019;45.556;12.004;2023-01-28T10:50:50;8.63;;;6.25;;
29302;SDS011;60019;45.556;12.004;2023-01-28T10:56:53;8.70;;;6.38;;
29302;SDS011;60019;45.556;12.004;2023-01-28T11:02:56;9.43;;;7.10;;
29302;SDS011;60019;45.556;12.004;2023-01-28T11:08:58;10.57;;;6.28;;
29302;SDS011;60019;45.556;12.004;2023-01-28T11:15:03;7.95;;;6.13;;
29302;SDS011;60019;45.556;12.004;2023-01-28T11:21:07;9.63;;;6.65;;
29302;SDS011;60019;45.556;12.004;2023-01-28T11:27:17;9.18;;;6.97;;
29302;SDS011;60019;45.556;12.004;2023-01-28T11:33:42;21.33;;;12.48;;
29302;SDS011;60019;45.556;12.004;2023-01-28T11:39:45;19.52;;;11.30;;
29302;SDS011;60019;45.556;12.004;2023-01-28T11:45:49;16.90;;;10.63;;
29302;SDS011;60019;45.556;12.004;2023-01-28T11:58:19;11.95;;;8.20;;
29302;SDS011;60019;45.556;12.004;2023-01-28T12:04:41;11.68;;;8.23;;
29302;SDS011;60019;45.556;12.004;2023-01-28T12:10:54;10.15;;;7.38;;
29302;SDS011;60019;45.556;12.004;2023-01-28T12:17:06;12.10;;;7.75;;
29302;SDS011;60019;45.556;12.004;2023-01-28T12:23:32;11.75;;;8.05;;
29302;SDS011;60019;45.556;12.004;2023-01-28T12:29:40;12.75;;;7.88;;
29302;SDS011;60019;45.556;12.004;2023-01-28T12:35:57;13.57;;;8.50;;
29302;SDS011;60019;45.556;12.004;2023-01-28T12:42:11;10.73;;;7.10;;
29302;SDS011;60019;45.556;12.004;2023-01-28T12:48:16;10.30;;;7.38;;
29302;SDS011;60019;45.556;12.004;2023-01-28T12:54:22;10.65;;;6.82;;
29302;SDS011;60019;45.556;12.004;2023-01-28T13:00:26;9.63;;;6.95;;
29302;SDS011;60019;45.556;12.004;2023-01-28T13:06:30;12.63;;;6.80;;
29302;SDS011;60019;45.556;12.004;2023-01-28T13:12:34;8.40;;;6.38;;
29302;SDS011;60019;45.556;12.004;2023-01-28T13:24:42;8.90;;;6.35;;
29302;SDS011;60019;45.556;12.004;2023-01-28T13:30:47;7.90;;;5.90;;
29302;SDS011;60019;45.556;12.004;2023-01-28T13:36:49;7.93;;;5.90;;
29302;SDS011;60019;45.556;12.004;2023-01-28T13:43:24;8.75;;;6.18;;
29302;SDS011;60019;45.556;12.004;2023-01-28T13:49:48;10.82;;;6.05;;
29302;SDS011;60019;45.556;12.004;2023-01-28T13:55:49;7.60;;;5.10;;
29302;SDS011;60019;45.556;12.004;2023-01-28T14:08:16;10.23;;;8.32;;
29302;SDS011;60019;45.556;12.004;2023-01-28T14:20:43;9.10;;;6.72;;
29302;SDS011;60019;45.556;12.004;2023-01-28T14:26:49;8.80;;;6.50;;
29302;SDS011;60019;45.556;12.004;2023-01-28T14:32:52;8.18;;;5.43;;
29302;SDS011;60019;45.556;12.004;2023-01-28T14:38:54;8.57;;;6.00;;
29302;SDS011;60019;45.556;12.004;2023-01-28T15:03:24;7.05;;;5.30;;
29302;SDS011;60019;45.556;12.004;2023-01-28T15:09:26;6.75;;;4.78;;
29302;SDS011;60019;45.556;12.004;2023-01-28T15:15:38;6.35;;;5.45;;
29302;SDS011;60019;45.556;12.004;2023-01-28T15:21:40;7.45;;;5.05;;
29302;SDS011;60019;45.556;12.004;2023-01-28T15:27:44;6.35;;;5.28;;
29302;SDS011;60019;45.556;12.004;2023-01-28T15:33:54;8.77;;;5.65;;
29302;SDS011;60019;45.556;12.004;2023-01-28T15:45:58;5.10;;;4.10;;
29302;SDS011;60019;45.556;12.004;2023-01-28T15:52:01;6.85;;;4.85;;
29302;SDS011;60019;45.556;12.004;2023-01-28T16:04:22;7.35;;;5.25;;
29302;SDS011;60019;45.556;12.004;2023-01-28T16:10:25;8.13;;;4.82;;
29302;SDS011;60019;45.556;12.004;2023-01-28T16:22:34;5.85;;;4.55;;
29302;SDS011;60019;45.556;12.004;2023-01-28T16:28:36;8.00;;;5.60;;
29302;SDS011;60019;45.556;12.004;2023-01-28T16:34:38;8.55;;;5.63;;
29302;SDS011;60019;45.556;12.004;2023-01-28T16:40:42;9.70;;;5.97;;
29302;SDS011;60019;45.556;12.004;2023-01-28T16:46:44;8.57;;;6.43;;
29302;SDS011;60019;45.556;12.004;2023-01-28T16:52:47;9.93;;;6.75;;
29302;SDS011;60019;45.556;12.004;2023-01-28T16:58:49;10.93;;;7.43;;
29302;SDS011;60019;45.556;12.004;2023-01-28T17:04:50;10.30;;;7.03;;
29302;SDS011;60019;45.556;12.004;2023-01-28T17:10:53;9.43;;;7.03;;
29302;SDS011;60019;45.556;12.004;2023-01-28T17:16:55;10.93;;;8.25;;
29302;SDS011;60019;45.556;12.004;2023-01-28T17:22:57;13.43;;;8.95;;
29302;SDS011;60019;45.556;12.004;2023-01-28T17:28:59;9.43;;;7.60;;
29302;SDS011;60019;45.556;12.004;2023-01-28T17:35:00;11.38;;;8.30;;
29302;SDS011;60019;45.556;12.004;2023-01-28T17:41:03;10.82;;;8.40;;
29302;SDS011;60019;45.556;12.004;2023-01-28T17:47:05;11.55;;;9.25;;
29302;SDS011;60019;45.556;12.004;2023-01-28T17:53:08;15.10;;;8.70;;
29302;SDS011;60019;45.556;12.004;2023-01-28T17:59:11;13.18;;;9.63;;
29302;SDS011;60019;45.556;12.004;2023-01-28T18:05:15;13.32;;;9.68;;
29302;SDS011;60019;45.556;12.004;2023-01-28T18:11:17;12.88;;;9.50;;
29302;SDS011;60019;45.556;12.004;2023-01-28T18:17:19;18.15;;;12.18;;
29302;SDS011;60019;45.556;12.004;2023-01-28T18:23:26;17.38;;;12.18;;
29302;SDS011;60019;45.556;12.004;2023-01-28T18:29:29;18.60;;;13.30;;
29302;SDS011;60019;45.556;12.004;2023-01-28T18:35:31;18.83;;;12.93;;
29302;SDS011;60019;45.556;12.004;2023-01-28T18:41:33;18.55;;;12.93;;
29302;SDS011;60019;45.556;12.004;2023-01-28T18:47:34;19.23;;;13.73;;
29302;SDS011;60019;45.556;12.004;2023-01-28T18:53:36;21.05;;;14.48;;
29302;SDS011;60019;45.556;12.004;2023-01-28T18:59:38;23.02;;;15.02;;
29302;SDS011;60019;45.556;12.004;2023-01-28T19:05:40;19.77;;;14.05;;
29302;SDS011;60019;45.556;12.004;2023-01-28T19:11:42;23.25;;;14.38;;
29302;SDS011;60019;45.556;12.004;2023-01-28T19:17:44;21.95;;;14.25;;
29302;SDS011;60019;45.556;12.004;2023-01-28T19:23:46;21.27;;;13.02;;
29302;SDS011;60019;45.556;12.004;2023-01-28T19:29:48;18.75;;;12.25;;
29302;SDS011;60019;45.556;12.004;2023-01-28T19:35:56;21.92;;;13.93;;
29302;SDS011;60019;45.556;12.004;2023-01-28T19:41:58;22.38;;;14.30;;
29302;SDS011;60019;45.556;12.004;2023-01-28T19:48:02;21.70;;;13.52;;
29302;SDS011;60019;45.556;12.004;2023-01-28T19:54:04;25.25;;;14.05;;
29302;SDS011;60019;45.556;12.004;2023-01-28T20:00:07;23.83;;;13.88;;
29302;SDS011;60019;45.556;12.004;2023-01-28T20:06:10;20.52;;;12.43;;
29302;SDS011;60019;45.556;12.004;2023-01-28T20:12:13;19.20;;;12.30;;
29302;SDS011;60019;45.556;12.004;2023-01-28T20:18:14;19.70;;;12.80;;
29302;SDS011;60019;45.556;12.004;2023-01-28T20:24:16;17.85;;;11.77;;
29302;SDS011;60019;45.556;12.004;2023-01-28T20:30:19;18.27;;;12.20;;
29302;SDS011;60019;45.556;12.004;2023-01-28T20:36:25;16.92;;;11.57;;
29302;SDS011;60019;45.556;12.004;2023-01-28T20:42:27;22.15;;;13.50;;
29302;SDS011;60019;45.556;12.004;2023-01-28T20:48:29;20.13;;;13.35;;
29302;SDS011;60019;45.556;12.004;2023-01-28T20:54:31;24.50;;;13.18;;
29302;SDS011;60019;45.556;12.004;2023-01-28T21:00:33;24.70;;;14.63;;
29302;SDS011;60019;45.556;12.004;2023-01-28T21:06:35;21.60;;;12.13;;
29302;SDS011;60019;45.556;12.004;2023-01-28T21:12:36;20.02;;;12.73;;
29302;SDS011;60019;45.556;12.004;2023-01-28T21:18:38;19.10;;;12.90;;
29302;SDS011;60019;45.556;12.004;2023-01-28T21:24:40;19.48;;;12.45;;
29302;SDS011;60019;45.556;12.004;2023-01-28T21:30:44;22.13;;;11.75;;
29302;SDS011;60019;45.556;12.004;2023-01-28T21:36:46;20.38;;;12.82;;
29302;SDS011;60019;45.556;12.004;2023-01-28T21:42:51;20.13;;;12.93;;
29302;SDS011;60019;45.556;12.004;2023-01-28T21:48:58;21.35;;;13.40;;
29302;SDS011;60019;45.556;12.004;2023-01-28T21:55:00;23.08;;;14.20;;
29302;SDS011;60019;45.556;12.004;2023-01-28T22:01:06;18.65;;;12.50;;
29302;SDS011;60019;45.556;12.004;2023-01-28T22:07:10;22.20;;;13.43;;
29302;SDS011;60019;45.556;12.004;2023-01-28T22:13:12;22.55;;;13.05;;
29302;SDS011;60019;45.556;12.004;2023-01-28T22:19:14;22.83;;;14.27;;
29302;SDS011;60019;45.556;12.004;2023-01-28T22:25:16;70.05;;;38.67;;
29302;SDS011;60019;45.556;12.004;2023-01-28T22:31:18;94.57;;;46.72;;
29302;SDS011;60019;45.556;12.004;2023-01-28T22:37:19;87.47;;;41.95;;
29302;SDS011;60019;45.556;12.004;2023-01-28T22:43:21;74.63;;;36.60;;
29302;SDS011;60019;45.556;12.004;2023-01-28T22:49:23;61.85;;;31.00;;
29302;SDS011;60019;45.556;12.004;2023-01-28T22:55:26;46.60;;;24.10;;
29302;SDS011;60019;45.556;12.004;2023-01-28T23:01:28;46.33;;;22.42;;
29302;SDS011;60019;45.556;12.004;2023-01-28T23:07:30;37.00;;;21.00;;
29302;SDS011;60019;45.556;12.004;2023-01-28T23:13:32;29.05;;;17.33;;
29302;SDS011;60019;45.556;12.004;2023-01-28T23:19:52;31.30;;;18.75;;
29302;SDS011;60019;45.556;12.004;2023-01-28T23:26:12;26.13;;;15.77;;
29302;SDS011;60019;45.556;12.004;2023-01-28T23:32:14;26.13;;;15.65;;
29302;SDS011;60019;45.556;12.004;2023-01-28T23:38:16;27.05;;;14.80;;
29302;SDS011;60019;45.556;12.004;2023-01-28T23:44:26;24.75;;;15.35;;
29302;SDS011;60019;45.556;12.004;2023-01-28T23:50:28;20.65;;;13.93;;
29302;SDS011;60019;45.556;12.004;2023-01-28T23:56:30;23.05;;;13.88;;
